createdAt,value
2022-10-14T00:01:22.997Z,11.83
2022-10-14T00:03:51.428Z,11.82
2022-10-14T00:06:26.053Z,11.85
2022-10-14T00:08:55.003Z,11.83
2022-10-14T00:11:31.024Z,11.69
2022-10-14T00:14:06.209Z,11.62
2022-10-14T00:16:40.268Z,11.54
2022-10-14T00:19:11.887Z,11.49
2022-10-14T00:21:42.945Z,11.46
2022-10-14T00:24:16.017Z,11.49
2022-10-14T00:26:43.658Z,11.47
2022-10-14T00:29:21.076Z,11.41
2022-10-14T00:31:48.735Z,11.39
2022-10-14T00:34:16.334Z,11.49
2022-10-14T00:36:44.570Z,11.59
2022-10-14T00:39:16.063Z,11.59
2022-10-14T00:41:43.526Z,11.54
2022-10-14T00:44:13.599Z,11.49
2022-10-14T00:46:45.918Z,11.43
2022-10-14T00:49:27.887Z,11.42
2022-10-14T00:52:05.389Z,11.40
2022-10-14T00:54:48.729Z,11.44
2022-10-14T00:57:16.901Z,11.48
2022-10-14T00:59:44.252Z,11.47
2022-10-14T01:02:11.457Z,11.45
2022-10-14T01:04:41.460Z,11.34
2022-10-14T01:07:48.614Z,11.36
2022-10-14T01:10:55.593Z,11.49
2022-10-14T01:13:37.675Z,11.54
2022-10-14T01:16:39.168Z,11.55
2022-10-14T01:19:50.155Z,11.51
2022-10-14T01:22:37.135Z,11.41
2022-10-14T01:25:28.281Z,11.34
2022-10-14T01:28:24.316Z,11.32
2022-10-14T01:31:11.457Z,11.26
2022-10-14T01:33:44.884Z,11.31
2022-10-14T01:36:29.814Z,11.28
2022-10-14T01:39:27.241Z,11.18
2022-10-14T01:42:10.174Z,11.14
2022-10-14T01:44:46.862Z,11.10
2022-10-14T01:47:19.529Z,11.10
2022-10-14T01:49:58.102Z,11.08
2022-10-14T01:52:34.851Z,11.14
2022-10-14T01:55:16.846Z,11.18
2022-10-14T01:57:45.708Z,11.08
2022-10-14T02:00:15.497Z,11.04
2022-10-14T02:02:43.775Z,11.02
2022-10-14T02:05:31.159Z,10.97
2022-10-14T02:08:36.072Z,10.93
2022-10-14T02:11:19.094Z,10.89
2022-10-14T02:14:28.201Z,10.85
2022-10-14T02:17:27.694Z,10.89
2022-10-14T02:20:29.412Z,10.84
2022-10-14T02:23:25.821Z,10.79
2022-10-14T02:25:57.860Z,10.73
2022-10-14T02:28:29.488Z,10.69
2022-10-14T02:31:09.867Z,10.67
2022-10-14T02:33:44.457Z,10.65
2022-10-14T02:36:17.131Z,10.63
2022-10-14T02:38:46.737Z,10.60
2022-10-14T02:41:20.481Z,10.66
2022-10-14T02:43:48.087Z,10.73
2022-10-14T02:46:15.586Z,10.73
2022-10-14T02:48:42.818Z,10.75
2022-10-14T02:51:10.065Z,10.74
2022-10-14T02:53:38.695Z,10.78
2022-10-14T02:56:09.726Z,10.77
2022-10-14T02:58:37.024Z,10.76
2022-10-14T03:01:05.205Z,10.72
2022-10-14T03:03:33.166Z,10.67
2022-10-14T03:06:00.642Z,10.68
2022-10-14T03:08:28.894Z,10.71
2022-10-14T03:10:57.824Z,10.72
2022-10-14T03:13:27.800Z,10.81
2022-10-14T03:15:55.557Z,10.79
2022-10-14T03:18:24.433Z,10.77
2022-10-14T03:20:58.548Z,10.72
2022-10-14T03:23:32.829Z,10.72
2022-10-14T03:25:59.996Z,10.71
2022-10-14T03:28:34.193Z,10.76
2022-10-14T03:31:13.372Z,10.77
2022-10-14T03:33:53.698Z,10.73
2022-10-14T03:36:21.095Z,10.73
2022-10-14T03:38:53.750Z,10.81
2022-10-14T03:41:31.507Z,10.78
2022-10-14T03:43:59.335Z,10.69
2022-10-14T03:46:27.438Z,10.61
2022-10-14T03:48:55.051Z,10.63
2022-10-14T03:51:22.704Z,10.70
2022-10-14T03:53:50.078Z,10.70
2022-10-14T03:56:24.949Z,10.61
2022-10-14T03:58:53.807Z,10.56
2022-10-14T04:01:22.621Z,10.50
2022-10-14T04:04:07.471Z,10.47
2022-10-14T04:06:36.546Z,10.45
2022-10-14T04:09:05.695Z,10.47
2022-10-14T04:11:37.122Z,10.45
2022-10-14T04:14:09.264Z,10.51
2022-10-14T04:16:49.526Z,10.51
2022-10-14T04:19:17.748Z,10.58
2022-10-14T04:21:45.509Z,10.54
2022-10-14T04:24:12.819Z,10.52
2022-10-14T04:26:52.074Z,10.56
2022-10-14T04:29:30.830Z,10.50
2022-10-14T04:32:04.336Z,10.44
2022-10-14T04:34:31.519Z,10.45
2022-10-14T04:36:58.968Z,10.51
2022-10-14T04:39:42.337Z,10.53
2022-10-14T04:42:09.916Z,10.54
2022-10-14T04:44:37.558Z,10.60
2022-10-14T04:47:05.537Z,10.55
2022-10-14T04:49:33.504Z,10.48
2022-10-14T04:52:08.377Z,10.44
2022-10-14T04:55:05.464Z,10.58
2022-10-14T04:57:36.909Z,10.50
2022-10-14T05:00:06.568Z,10.54
2022-10-14T05:02:54.122Z,10.55
2022-10-14T05:05:27.447Z,10.61
2022-10-14T05:07:57.629Z,10.59
2022-10-14T05:10:31.391Z,10.51
2022-10-14T05:12:59.501Z,10.43
2022-10-14T05:15:31.425Z,10.48
2022-10-14T05:18:05.648Z,10.50
2022-10-14T05:20:59.868Z,10.53
2022-10-14T05:23:39.772Z,10.57
2022-10-14T05:26:10.655Z,10.55
2022-10-14T05:28:39.021Z,10.56
2022-10-14T05:31:06.942Z,10.53
2022-10-14T05:33:39.193Z,10.52
2022-10-14T05:36:07.251Z,10.57
2022-10-14T05:38:35.161Z,10.56
2022-10-14T05:41:04.093Z,10.48
2022-10-14T05:43:33.098Z,10.49
2022-10-14T05:46:02.615Z,10.61
2022-10-14T05:48:34.300Z,10.66
2022-10-14T05:51:03.314Z,10.59
2022-10-14T05:53:32.770Z,10.62
2022-10-14T06:01:13.437Z,10.73
2022-10-14T06:03:43.080Z,10.71
2022-10-14T06:06:14.533Z,10.81
2022-10-14T06:08:42.726Z,10.88
2022-10-14T06:11:09.953Z,10.93
2022-10-14T06:13:37.462Z,10.99
2022-10-14T06:16:10.129Z,11.11
2022-10-14T06:18:38.649Z,11.20
2022-10-14T06:21:07.379Z,11.29
2022-10-14T06:23:35.118Z,11.31
2022-10-14T06:26:09.678Z,11.34
2022-10-14T06:28:37.772Z,11.38
2022-10-14T06:31:06.017Z,11.42
2022-10-14T06:33:34.051Z,11.46
2022-10-14T06:36:06.944Z,11.54
2022-10-14T06:38:34.226Z,11.63
2022-10-14T06:41:01.601Z,11.70
2022-10-14T06:43:28.899Z,11.76
2022-10-14T06:45:58.401Z,11.84
2022-10-14T06:48:25.769Z,11.89
2022-10-14T06:50:53.166Z,11.92
2022-10-14T06:53:20.980Z,11.97
2022-10-14T06:55:48.225Z,11.99
2022-10-14T06:58:15.357Z,12.02
2022-10-14T07:00:47.810Z,12.06
2022-10-14T07:03:15.493Z,12.12
2022-10-14T07:05:42.601Z,12.18
2022-10-14T07:08:12.787Z,12.25
2022-10-14T07:10:42.677Z,12.31
2022-10-14T07:13:10.017Z,12.40
2022-10-14T07:15:39.238Z,12.47
2022-10-14T07:18:07.976Z,12.52
2022-10-14T07:20:35.252Z,12.58
2022-10-14T07:23:02.414Z,12.68
2022-10-14T07:25:29.544Z,12.77
2022-10-14T07:27:56.823Z,12.83
2022-10-14T07:30:24.120Z,12.89
2022-10-14T07:32:51.381Z,12.95
2022-10-14T07:35:21.660Z,13.01
2022-10-14T07:37:50.403Z,13.05
2022-10-14T07:40:17.846Z,13.15
2022-10-14T07:42:45.162Z,13.27
2022-10-14T07:45:16.246Z,13.39
2022-10-14T07:47:47.561Z,13.56
2022-10-14T07:50:14.790Z,13.74
2022-10-14T07:52:42.108Z,13.91
2022-10-14T07:55:09.706Z,14.10
2022-10-14T07:57:36.901Z,14.22
2022-10-14T08:00:05.363Z,14.43
2022-10-14T08:02:39.245Z,14.62
2022-10-14T08:07:54.100Z,14.92
2022-10-14T08:10:21.312Z,15.05
2022-10-14T08:12:48.512Z,15.17
2022-10-14T08:15:15.896Z,15.35
2022-10-14T08:17:43.143Z,15.43
2022-10-14T08:20:10.559Z,15.50
2022-10-14T08:22:37.793Z,15.47
2022-10-14T08:25:05.735Z,15.45
2022-10-14T08:27:33.072Z,15.38
2022-10-14T08:30:00.185Z,15.31
2022-10-14T08:32:29.664Z,15.26
2022-10-14T08:34:56.917Z,15.26
2022-10-14T08:37:24.222Z,15.37
2022-10-14T08:39:51.359Z,15.36
2022-10-14T08:42:45.963Z,15.39
2022-10-14T08:45:39.503Z,15.51
2022-10-14T08:48:20.356Z,15.61
2022-10-14T08:51:12.970Z,15.80
2022-10-14T08:53:56.731Z,15.92
2022-10-14T08:56:24.950Z,15.94
2022-10-14T08:58:55.967Z,15.87
2022-10-14T09:01:26.931Z,16.03
2022-10-14T09:04:13.919Z,16.12
2022-10-14T09:06:47.033Z,16.30
2022-10-14T09:09:45.503Z,16.31
2022-10-14T09:12:28.834Z,16.33
2022-10-14T09:15:28.306Z,16.21
2022-10-14T09:18:26.314Z,16.25
2022-10-14T09:20:55.444Z,16.41
2022-10-14T09:23:27.557Z,16.65
2022-10-14T09:26:19.825Z,17.04
2022-10-14T09:28:49.711Z,17.39
2022-10-14T09:31:16.906Z,17.48
2022-10-14T09:33:45.154Z,17.84
2022-10-14T09:36:21.861Z,17.65
2022-10-14T09:38:53.158Z,17.92
2022-10-14T09:41:30.488Z,18.05
2022-10-14T09:44:25.173Z,17.83
2022-10-14T09:46:58.429Z,17.87
2022-10-14T09:49:40.329Z,17.76
2022-10-14T09:52:20.576Z,17.78
2022-10-14T09:54:58.742Z,17.88
2022-10-14T09:57:27.326Z,17.66
2022-10-14T10:00:03.929Z,17.74
2022-10-14T10:02:43.597Z,17.88
2022-10-14T10:05:34.753Z,17.86
2022-10-14T10:08:13.526Z,17.99
2022-10-14T10:10:41.138Z,18.08
2022-10-14T10:13:23.384Z,18.43
2022-10-14T10:15:59.983Z,18.89
2022-10-14T10:18:27.738Z,19.15
2022-10-14T10:21:07.676Z,19.34
2022-10-14T10:23:36.461Z,18.82
2022-10-14T10:26:34.517Z,18.87
2022-10-14T10:29:05.499Z,18.66
2022-10-14T10:31:53.627Z,18.59
2022-10-14T10:34:38.075Z,18.75
2022-10-14T10:37:27.209Z,19.23
2022-10-14T10:40:35.953Z,19.75
2022-10-14T10:43:50.394Z,20.30
2022-10-14T10:46:51.594Z,20.63
2022-10-14T10:49:50.148Z,20.16
2022-10-14T10:53:16.789Z,19.84
2022-10-14T10:56:04.393Z,19.83
2022-10-14T10:59:33.462Z,19.24
2022-10-14T11:02:12.399Z,19.06
2022-10-14T11:05:22.014Z,19.43
2022-10-14T11:08:55.287Z,19.66
2022-10-14T11:12:01.632Z,19.76
2022-10-14T11:15:09.711Z,20.03
2022-10-14T11:18:02.604Z,20.11
2022-10-14T11:21:13.877Z,19.68
2022-10-14T11:23:59.620Z,19.59
2022-10-14T11:27:09.533Z,20.11
2022-10-14T11:30:18.574Z,20.18
2022-10-14T11:33:39.729Z,19.68
2022-10-14T11:36:31.565Z,19.44
2022-10-14T11:39:12.603Z,19.95
2022-10-14T11:42:13.662Z,20.29
2022-10-14T11:44:43.542Z,20.28
2022-10-14T11:47:19.770Z,20.42
2022-10-14T11:50:29.670Z,19.96
2022-10-14T11:53:13.215Z,19.67
2022-10-14T11:55:50.602Z,19.68
2022-10-14T11:58:25.601Z,20.27
2022-10-14T12:01:15.096Z,20.44
2022-10-14T12:03:51.966Z,20.56
2022-10-14T12:06:47.221Z,20.61
2022-10-14T12:09:28.324Z,20.00
2022-10-14T12:12:06.891Z,19.68
2022-10-14T12:14:46.725Z,19.73
2022-10-14T12:17:51.220Z,19.93
2022-10-14T12:20:51.634Z,19.55
2022-10-14T12:23:49.549Z,19.82
2022-10-14T12:26:49.054Z,20.29
2022-10-14T12:29:43.796Z,20.25
2022-10-14T12:32:21.986Z,19.78
2022-10-14T12:34:56.524Z,20.24
2022-10-14T12:37:34.840Z,20.31
2022-10-14T12:40:02.637Z,20.00
2022-10-14T12:42:44.046Z,19.71
2022-10-14T12:45:25.172Z,19.37
2022-10-14T12:48:24.079Z,19.42
2022-10-14T12:51:11.046Z,19.56
2022-10-14T12:53:53.014Z,19.69
2022-10-14T12:56:45.015Z,19.54
2022-10-14T12:59:49.136Z,19.88
2022-10-14T13:02:32.385Z,19.68
2022-10-14T13:05:23.068Z,19.56
2022-10-14T13:08:25.710Z,19.89
2022-10-14T13:11:14.859Z,19.53
2022-10-14T13:13:42.135Z,19.53
2022-10-14T13:16:21.564Z,19.66
2022-10-14T13:18:58.300Z,19.74
2022-10-14T13:21:34.674Z,19.92
2022-10-14T13:24:41.657Z,19.73
2022-10-14T13:27:45.857Z,19.65
2022-10-14T13:30:34.769Z,19.69
2022-10-14T13:33:21.800Z,19.54
2022-10-14T13:36:14.101Z,19.77
2022-10-14T13:38:53.040Z,19.93
2022-10-14T13:41:30.918Z,19.73
2022-10-14T13:44:00.846Z,19.63
2022-10-14T13:46:39.662Z,19.51
2022-10-14T13:49:17.779Z,19.70
2022-10-14T13:51:59.809Z,19.86
2022-10-14T13:54:32.566Z,19.91
2022-10-14T13:57:38.741Z,20.03
2022-10-14T14:02:53.349Z,20.16
2022-10-14T14:11:23.102Z,20.19
2022-10-14T14:14:12.544Z,20.22
2022-10-14T14:16:56.177Z,20.49
2022-10-14T14:19:36.302Z,20.32
2022-10-14T14:22:24.344Z,20.07
2022-10-14T14:24:52.485Z,19.91
2022-10-14T14:27:26.579Z,20.11
2022-10-14T14:29:55.161Z,20.04
2022-10-14T14:32:31.564Z,20.25
2022-10-14T14:35:00.234Z,20.14
2022-10-14T14:37:52.883Z,20.16
2022-10-14T14:40:31.094Z,19.98
2022-10-14T14:43:04.599Z,19.73
2022-10-14T14:45:42.538Z,19.84
2022-10-14T14:48:13.493Z,20.06
2022-10-14T14:50:44.427Z,19.79
2022-10-14T14:53:22.067Z,19.74
2022-10-14T14:56:10.537Z,19.68
2022-10-14T14:58:52.991Z,19.76
2022-10-14T15:01:30.865Z,19.71
2022-10-14T15:04:11.970Z,19.88
2022-10-14T15:06:50.942Z,19.98
2022-10-14T15:09:55.953Z,20.01
2022-10-14T15:12:26.496Z,19.80
2022-10-14T15:15:00.502Z,19.89
2022-10-14T15:17:47.577Z,19.99
2022-10-14T15:22:51.707Z,21.16
2022-10-14T15:25:29.148Z,21.39
2022-10-14T15:28:05.383Z,21.10
2022-10-14T15:30:39.626Z,21.06
2022-10-14T15:33:23.129Z,20.89
2022-10-14T15:36:04.479Z,21.23
2022-10-14T15:41:05.655Z,20.34
2022-10-14T15:43:34.673Z,20.27
2022-10-14T15:46:20.682Z,20.37
2022-10-14T15:48:54.905Z,20.17
2022-10-14T15:51:24.331Z,20.22
2022-10-14T15:53:51.911Z,20.09
2022-10-14T15:56:20.927Z,19.95
2022-10-14T15:58:49.055Z,19.83
2022-10-14T16:01:21.917Z,19.74
2022-10-14T16:03:52.252Z,19.49
2022-10-14T16:06:22.423Z,19.24
2022-10-14T16:08:49.653Z,19.07
2022-10-14T16:11:28.770Z,18.90
2022-10-14T16:13:56.680Z,18.76
2022-10-14T16:16:43.048Z,18.71
2022-10-14T16:19:11.497Z,18.70
2022-10-14T16:21:40.224Z,18.61
2022-10-14T16:24:16.026Z,18.51
2022-10-14T16:26:43.302Z,18.42
2022-10-14T16:29:11.856Z,18.31
2022-10-14T16:31:39.268Z,18.19
2022-10-14T16:34:06.611Z,18.06
2022-10-14T16:36:33.897Z,17.93
2022-10-14T16:39:03.615Z,17.87
2022-10-14T16:41:31.187Z,17.79
2022-10-14T16:43:58.416Z,17.74
2022-10-14T16:46:45.674Z,17.70
2022-10-14T16:49:12.909Z,17.60
2022-10-14T16:51:42.430Z,17.50
2022-10-14T16:54:11.274Z,17.43
2022-10-14T16:56:53.838Z,17.40
2022-10-14T16:59:22.958Z,17.40
2022-10-14T17:01:51.706Z,17.36
2022-10-14T17:04:23.113Z,17.30
2022-10-14T17:06:58.565Z,17.26
2022-10-14T17:09:26.025Z,17.18
2022-10-14T17:11:54.783Z,17.13
2022-10-14T17:14:23.985Z,17.07
2022-10-14T17:16:53.954Z,17.08
2022-10-14T17:19:21.720Z,17.02
2022-10-14T17:21:49.030Z,16.96
2022-10-14T17:24:16.910Z,16.86
2022-10-14T17:26:47.681Z,16.79
2022-10-14T17:29:14.968Z,16.72
2022-10-14T17:31:44.886Z,16.66
2022-10-14T17:34:12.153Z,16.59
2022-10-14T17:36:41.438Z,16.50
2022-10-14T17:39:18.692Z,16.39
2022-10-14T17:41:52.522Z,16.34
2022-10-14T17:44:19.757Z,16.25
2022-10-14T17:46:47.043Z,16.16
2022-10-14T17:49:14.977Z,16.06
2022-10-14T17:51:42.573Z,16.02
2022-10-14T17:54:12.309Z,15.96
2022-10-14T17:56:40.881Z,15.96
2022-10-14T17:59:13.882Z,15.90
2022-10-14T18:02:01.528Z,15.88
2022-10-14T18:04:28.597Z,15.84
2022-10-14T18:06:56.124Z,15.80
2022-10-14T18:09:23.426Z,15.77
2022-10-14T18:14:40.611Z,15.65
2022-10-14T18:17:12.255Z,15.63
2022-10-14T18:19:41.074Z,15.60
2022-10-14T18:22:10.876Z,15.52
2022-10-14T18:24:39.215Z,15.46
2022-10-14T18:27:07.221Z,15.43
2022-10-14T18:29:34.527Z,15.35
2022-10-14T18:32:01.688Z,15.30
2022-10-14T18:34:29.020Z,15.26
2022-10-14T18:36:56.265Z,15.19
2022-10-14T18:39:23.566Z,15.14
2022-10-14T18:41:50.676Z,15.08
2022-10-14T18:44:18.333Z,15.04
2022-10-14T18:46:47.425Z,14.99
2022-10-14T18:49:14.768Z,14.94
2022-10-14T18:51:43.263Z,14.91
2022-10-14T18:54:20.456Z,14.89
2022-10-14T18:56:48.007Z,14.81
2022-10-14T18:59:22.982Z,14.74
2022-10-14T19:01:54.138Z,14.69
2022-10-14T19:04:26.800Z,14.64
2022-10-14T19:06:54.067Z,14.60
2022-10-14T19:09:28.892Z,14.56
2022-10-14T19:11:58.875Z,14.54
2022-10-14T19:14:28.507Z,14.52
2022-10-14T19:16:55.741Z,14.50
2022-10-14T19:19:22.848Z,14.47
2022-10-14T19:21:54.253Z,14.41
2022-10-14T19:24:21.875Z,14.40
2022-10-14T19:26:49.957Z,14.38
2022-10-14T19:29:17.794Z,14.35
2022-10-14T19:31:45.328Z,14.33
2022-10-14T19:34:16.145Z,14.30
2022-10-14T19:36:45.196Z,14.24
2022-10-14T19:39:16.216Z,14.16
2022-10-14T19:41:44.623Z,14.14
2022-10-14T19:44:14.821Z,14.13
2022-10-14T19:46:44.291Z,14.10
2022-10-14T19:49:15.266Z,14.01
2022-10-14T19:51:42.483Z,13.93
2022-10-14T19:54:12.741Z,13.92
2022-10-14T19:56:40.214Z,13.99
2022-10-14T19:59:08.045Z,13.97
2022-10-14T20:01:35.740Z,13.95
2022-10-14T20:04:03.471Z,13.93
2022-10-14T20:06:34.241Z,13.90
2022-10-14T20:09:02.959Z,13.90
2022-10-14T20:11:31.240Z,13.92
2022-10-14T20:13:58.832Z,13.90
2022-10-14T20:16:27.235Z,13.86
2022-10-14T20:18:55.956Z,13.78
2022-10-14T20:21:23.769Z,13.80
2022-10-14T20:23:51.371Z,13.70
2022-10-14T20:26:21.803Z,13.64
2022-10-14T20:28:50.381Z,13.61
2022-10-14T20:31:22.343Z,13.57
2022-10-14T20:33:49.603Z,13.59
2022-10-14T20:36:21.140Z,13.57
2022-10-14T20:38:49.671Z,13.54
2022-10-14T20:41:24.408Z,13.53
2022-10-14T20:43:53.867Z,13.48
2022-10-14T20:46:22.584Z,13.47
2022-10-14T20:48:55.443Z,13.47
2022-10-14T20:51:23.663Z,13.47
2022-10-14T20:54:01.629Z,13.43
2022-10-14T20:56:33.458Z,13.40
2022-10-14T20:59:05.902Z,13.36
2022-10-14T21:01:35.204Z,13.38
2022-10-14T21:04:07.144Z,13.41
2022-10-14T21:06:35.610Z,13.37
2022-10-14T21:09:03.824Z,13.37
2022-10-14T21:11:31.223Z,13.44
2022-10-14T21:14:00.508Z,13.42
2022-10-14T21:16:35.748Z,13.42
2022-10-14T21:19:09.882Z,13.42
2022-10-14T21:21:45.290Z,13.41
2022-10-14T21:24:18.114Z,13.41
2022-10-14T21:26:50.602Z,13.36
2022-10-14T21:29:20.496Z,13.32
2022-10-14T21:31:49.473Z,13.35
2022-10-14T21:34:16.789Z,13.37
2022-10-14T21:36:44.759Z,13.34
2022-10-14T21:39:16.339Z,13.36
2022-10-14T21:41:44.452Z,13.36
2022-10-14T21:44:17.840Z,13.35
2022-10-14T21:46:45.437Z,13.30
2022-10-14T21:49:13.379Z,13.22
2022-10-14T21:51:41.158Z,13.18
2022-10-14T21:54:10.898Z,13.09
2022-10-14T21:56:38.856Z,13.04
2022-10-14T21:59:06.854Z,13.09
2022-10-14T22:01:34.659Z,13.09
2022-10-14T22:04:05.864Z,13.07
2022-10-14T22:06:35.418Z,13.05
2022-10-14T22:09:07.027Z,13.02
2022-10-14T22:11:41.155Z,13.01
2022-10-14T22:14:14.893Z,13.00
2022-10-14T22:16:42.202Z,12.93
2022-10-14T22:19:12.478Z,12.93
2022-10-14T22:21:43.068Z,12.92
2022-10-14T22:24:13.073Z,12.92
2022-10-14T22:26:41.011Z,12.92
2022-10-14T22:29:17.600Z,12.94
2022-10-14T22:31:45.990Z,13.02
2022-10-14T22:34:17.572Z,13.06
2022-10-14T22:36:45.705Z,13.04
2022-10-14T22:39:16.268Z,13.06
2022-10-14T22:41:43.684Z,13.06
2022-10-14T22:44:11.623Z,13.08
2022-10-14T22:46:40.319Z,13.09
2022-10-14T22:49:07.946Z,13.12
2022-10-14T22:51:42.821Z,13.22
2022-10-14T22:54:11.056Z,13.24
2022-10-14T22:56:38.805Z,13.25
2022-10-14T22:59:11.707Z,13.27
2022-10-14T23:01:42.051Z,13.34
2022-10-14T23:04:10.981Z,13.40
2022-10-14T23:06:40.408Z,13.43
2022-10-14T23:09:07.597Z,13.42
2022-10-14T23:11:34.790Z,13.42
2022-10-14T23:14:06.263Z,13.40
2022-10-14T23:16:36.050Z,13.36
2022-10-14T23:19:03.372Z,13.33
2022-10-14T23:21:36.424Z,13.32
2022-10-14T23:24:11.435Z,13.32
2022-10-14T23:26:39.026Z,13.33
2022-10-14T23:29:11.465Z,13.30
2022-10-14T23:31:40.778Z,13.29
2022-10-14T23:34:13.089Z,13.33
2022-10-14T23:36:40.905Z,13.34
2022-10-14T23:39:08.597Z,13.33
2022-10-14T23:41:35.836Z,13.35
2022-10-14T23:44:03.240Z,13.34
2022-10-14T23:46:30.729Z,13.31
2022-10-14T23:49:07.541Z,13.26
2022-10-14T23:51:45.190Z,13.24
2022-10-14T23:54:12.542Z,13.19
2022-10-14T23:56:39.935Z,13.15
2022-10-14T23:59:07.164Z,13.10
